Time;durP1;ratioP1;P1;durP2;ratioP2;P2;SDS_P1;SDS_P2;PMS_P1;PMS_P2;Temp;Humidity;BMP_temperature;BMP_pressure;BME280_temperature;BME280_humidity;BME280_pressure;Samples;Min_cycle;Max_cycle;Signal;HPM_P1;HPM_P2
2022/07/21 00:02:40;;;;;;;3.70;3.00;;;;;;;;;;5046352;28;20431;-83
2022/07/21 00:05:25;;;;;;;3.75;2.22;;;;;;;;;;5031554;28;20421;-83
2022/07/21 00:08:12;;;;;;;3.42;2.40;;;;;;;;;;5046079;28;20029;-83
2022/07/21 00:10:58;;;;;;;4.80;2.70;;;;;;;;;;5031387;28;20044;-83
2022/07/21 00:13:44;;;;;;;3.25;2.55;;;;;;;;;;5030894;28;20033;-83
2022/07/21 00:16:30;;;;;;;4.40;2.53;;;;;;;;;;5031057;28;20049;-83
2022/07/21 00:19:15;;;;;;;3.22;2.40;;;;;;;;;;5045124;28;20037;-83
2022/07/21 00:22:01;;;;;;;3.88;2.55;;;;;;;;;;5031471;28;20034;-83
2022/07/21 00:24:47;;;;;;;4.25;2.40;;;;;;;;;;5045007;28;20095;-83
2022/07/21 00:27:33;;;;;;;3.38;2.38;;;;;;;;;;5030955;28;20033;-83
2022/07/21 00:30:18;;;;;;;4.75;2.80;;;;;;;;;;5043656;28;20120;-83
2022/07/21 00:33:04;;;;;;;4.20;2.67;;;;;;;;;;5045808;28;20385;-83
2022/07/21 00:35:50;;;;;;;2.97;2.30;;;;;;;;;;5031447;28;20032;-83
2022/07/21 00:38:36;;;;;;;4.00;2.70;;;;;;;;;;5044634;28;20045;-83
2022/07/21 00:41:21;;;;;;;3.20;2.50;;;;;;;;;;5044697;28;20423;-83
2022/07/21 00:44:19;;;;;;;3.88;2.20;;;;;;;;;;5030329;28;20033;-83
2022/07/21 00:47:04;;;;;;;4.63;2.42;;;;;;;;;;5045136;28;20049;-83
2022/07/21 00:49:50;;;;;;;3.38;2.40;;;;;;;;;;5043235;28;20037;-82
2022/07/21 00:52:36;;;;;;;3.13;2.40;;;;;;;;;;5044997;28;20069;-83
2022/07/21 00:55:22;;;;;;;3.92;2.60;;;;;;;;;;5045643;28;20042;-83
2022/07/21 00:58:08;;;;;;;4.07;2.78;;;;;;;;;;5031695;28;20037;-83
2022/07/21 01:00:54;;;;;;;3.20;2.05;;;;;;;;;;5030939;28;20057;-83
2022/07/21 01:03:40;;;;;;;4.18;2.67;;;;;;;;;;5030883;28;20419;-83
2022/07/21 01:06:25;;;;;;;4.18;2.53;;;;;;;;;;5031500;28;20033;-84
2022/07/21 01:09:14;;;;;;;4.25;2.60;;;;;;;;;;5043383;28;20061;-83
2022/07/21 01:12:00;;;;;;;3.83;2.38;;;;;;;;;;5031871;28;20037;-83
2022/07/21 01:14:46;;;;;;;3.35;2.20;;;;;;;;;;5043140;28;20037;-82
2022/07/21 01:17:31;;;;;;;3.58;2.47;;;;;;;;;;5045927;28;20291;-84
2022/07/21 01:20:19;;;;;;;4.80;3.13;;;;;;;;;;5044840;28;20486;-83
2022/07/21 01:23:04;;;;;;;2.75;2.13;;;;;;;;;;5030457;28;20048;-83
2022/07/21 01:25:51;;;;;;;3.22;2.30;;;;;;;;;;5043971;28;20503;-83
2022/07/21 01:28:37;;;;;;;3.90;2.75;;;;;;;;;;5031020;28;20041;-83
2022/07/21 01:31:23;;;;;;;5.30;2.47;;;;;;;;;;5030167;28;20045;-83
2022/07/21 01:34:09;;;;;;;3.13;2.15;;;;;;;;;;5030077;28;20051;-83
2022/07/21 01:36:55;;;;;;;3.22;2.28;;;;;;;;;;5045112;28;20436;-83
2022/07/21 01:42:44;;;;;;;3.90;2.60;;;;;;;;;;5029907;28;20045;-83
2022/07/21 01:45:30;;;;;;;3.65;2.60;;;;;;;;;;5045073;28;20033;-83
2022/07/21 01:48:16;;;;;;;4.50;2.20;;;;;;;;;;5043249;28;20041;-83
2022/07/21 01:51:02;;;;;;;2.97;2.10;;;;;;;;;;5043942;28;20041;-84
2022/07/21 01:53:48;;;;;;;3.17;2.42;;;;;;;;;;5043070;28;20033;-83
2022/07/21 01:56:35;;;;;;;2.97;2.13;;;;;;;;;;5045322;28;20037;-83
2022/07/21 01:59:20;;;;;;;2.95;2.17;;;;;;;;;;5029794;28;20041;-83
2022/07/21 02:02:06;;;;;;;3.15;2.22;;;;;;;;;;5045189;28;20037;-83
2022/07/21 02:04:52;;;;;;;4.43;2.92;;;;;;;;;;5029614;28;20049;-83
2022/07/21 02:07:37;;;;;;;3.53;2.53;;;;;;;;;;5043802;28;20092;-83
2022/07/21 02:10:23;;;;;;;3.45;2.05;;;;;;;;;;5043758;28;20457;-83
2022/07/21 02:13:09;;;;;;;4.15;2.35;;;;;;;;;;5045993;28;20045;-83
2022/07/21 02:15:55;;;;;;;3.55;2.58;;;;;;;;;;5032508;28;20123;-83
2022/07/21 02:18:41;;;;;;;3.10;2.20;;;;;;;;;;5047168;28;20100;-83
2022/07/21 02:21:26;;;;;;;3.63;2.75;;;;;;;;;;5033799;28;20037;-83
2022/07/21 02:24:12;;;;;;;2.28;1.85;;;;;;;;;;5032103;28;20072;-83
2022/07/21 02:26:58;;;;;;;5.07;3.00;;;;;;;;;;5033383;28;20033;-83
2022/07/21 02:29:44;;;;;;;5.22;2.65;;;;;;;;;;5046795;28;20092;-83
2022/07/21 02:32:30;;;;;;;3.50;2.65;;;;;;;;;;5046865;28;20482;-83
2022/07/21 02:35:16;;;;;;;4.88;2.85;;;;;;;;;;5046970;28;20033;-84
2022/07/21 02:38:01;;;;;;;3.60;2.47;;;;;;;;;;5033339;28;20046;-83
2022/07/21 02:40:47;;;;;;;4.05;2.13;;;;;;;;;;5032806;28;20034;-83
2022/07/21 02:43:33;;;;;;;4.70;2.38;;;;;;;;;;5046416;28;20427;-83
2022/07/21 02:46:18;;;;;;;4.88;2.70;;;;;;;;;;5047931;28;20490;-83
2022/07/21 02:49:04;;;;;;;3.90;2.53;;;;;;;;;;5046569;28;20060;-83
2022/07/21 02:51:50;;;;;;;3.75;2.15;;;;;;;;;;5047882;28;20450;-83
2022/07/21 02:54:35;;;;;;;4.15;2.83;;;;;;;;;;5048318;28;20462;-83
2022/07/21 02:57:21;;;;;;;3.28;2.15;;;;;;;;;;5046448;28;20034;-83
2022/07/21 03:00:08;;;;;;;3.60;2.33;;;;;;;;;;5047582;28;20049;-83
2022/07/21 03:02:54;;;;;;;4.95;2.78;;;;;;;;;;5046147;28;20045;-83
2022/07/21 03:05:40;;;;;;;3.92;2.70;;;;;;;;;;5045775;28;20095;-83
2022/07/21 03:08:26;;;;;;;3.90;2.33;;;;;;;;;;5046509;28;20523;-83
2022/07/21 03:11:11;;;;;;;4.82;2.63;;;;;;;;;;5046203;28;20046;-83
2022/07/21 03:13:57;;;;;;;3.67;2.25;;;;;;;;;;5045827;28;20033;-83
2022/07/21 03:16:43;;;;;;;3.53;2.95;;;;;;;;;;5047137;28;20041;-83
2022/07/21 03:19:29;;;;;;;3.58;2.20;;;;;;;;;;5045975;28;20045;-82
2022/07/21 03:22:14;;;;;;;5.80;3.05;;;;;;;;;;5045825;28;20041;-83
2022/07/21 03:25:00;;;;;;;3.63;2.70;;;;;;;;;;5045934;28;20042;-82
2022/07/21 03:27:46;;;;;;;3.58;2.40;;;;;;;;;;5045383;28;20056;-83
2022/07/21 03:30:32;;;;;;;3.58;2.38;;;;;;;;;;5045403;28;20515;-83
2022/07/21 03:33:17;;;;;;;4.20;2.38;;;;;;;;;;5032115;28;20049;-83
2022/07/21 03:36:03;;;;;;;4.35;2.83;;;;;;;;;;5045293;28;20052;-83
2022/07/21 03:38:50;;;;;;;4.35;2.40;;;;;;;;;;5046567;28;20037;-83
2022/07/21 03:41:36;;;;;;;3.40;2.50;;;;;;;;;;5031913;28;20032;-83
2022/07/21 03:44:22;;;;;;;3.42;2.15;;;;;;;;;;5044878;28;20045;-83
2022/07/21 03:47:07;;;;;;;5.25;2.67;;;;;;;;;;5031890;28;20029;-82
2022/07/21 03:49:53;;;;;;;3.20;2.60;;;;;;;;;;5046731;28;20036;-83
2022/07/21 03:52:39;;;;;;;3.58;2.72;;;;;;;;;;5045539;28;20033;-83
2022/07/21 03:55:25;;;;;;;3.58;2.25;;;;;;;;;;5017801;28;20492;-82
2022/07/21 03:58:11;;;;;;;3.47;2.53;;;;;;;;;;5031743;28;20040;-83
2022/07/21 04:00:57;;;;;;;3.72;2.22;;;;;;;;;;5017797;28;20427;-83
2022/07/21 04:03:43;;;;;;;3.60;2.53;;;;;;;;;;5046043;28;20034;-82
2022/07/21 04:06:28;;;;;;;4.82;2.83;;;;;;;;;;5031254;28;20045;-82
2022/07/21 04:09:14;;;;;;;3.67;2.67;;;;;;;;;;5045114;28;20049;-82
2022/07/21 04:12:00;;;;;;;4.07;2.60;;;;;;;;;;5030034;28;20049;-82
2022/07/21 04:14:46;;;;;;;3.63;2.38;;;;;;;;;;5044270;28;20038;-83
2022/07/21 04:17:31;;;;;;;3.65;2.50;;;;;;;;;;5031942;28;20033;-82
2022/07/21 04:20:17;;;;;;;3.90;2.80;;;;;;;;;;5044820;28;20029;-83
2022/07/21 04:23:03;;;;;;;4.32;3.00;;;;;;;;;;5044503;28;20056;-82
2022/07/21 04:25:48;;;;;;;4.50;3.00;;;;;;;;;;5044638;28;20041;-83
2022/07/21 04:28:34;;;;;;;3.72;2.22;;;;;;;;;;5043858;28;20091;-82
2022/07/21 04:31:20;;;;;;;3.72;2.65;;;;;;;;;;5044838;28;20045;-83
2022/07/21 04:34:06;;;;;;;3.92;2.90;;;;;;;;;;5043385;28;20095;-82
2022/07/21 04:36:51;;;;;;;4.22;2.63;;;;;;;;;;5044781;28;20041;-82
2022/07/21 04:39:37;;;;;;;3.58;2.55;;;;;;;;;;5031195;28;20041;-83
2022/07/21 04:42:23;;;;;;;3.67;2.58;;;;;;;;;;5043775;28;20049;-82
2022/07/21 04:45:10;;;;;;;5.63;2.80;;;;;;;;;;5043606;28;20119;-82
2022/07/21 04:47:55;;;;;;;3.88;2.80;;;;;;;;;;5016930;28;20638;-82
2022/07/21 04:50:41;;;;;;;3.95;2.40;;;;;;;;;;5043891;28;20038;-83
2022/07/21 04:53:27;;;;;;;3.80;2.95;;;;;;;;;;5030740;28;20045;-83
2022/07/21 04:56:12;;;;;;;3.60;2.83;;;;;;;;;;5044036;28;20056;-82
2022/07/21 04:58:58;;;;;;;3.00;1.92;;;;;;;;;;5031550;28;20053;-82
2022/07/21 05:01:44;;;;;;;4.93;2.90;;;;;;;;;;5029204;28;20423;-82
2022/07/21 05:04:30;;;;;;;3.63;2.50;;;;;;;;;;5030292;28;20083;-83
2022/07/21 05:07:15;;;;;;;3.65;2.80;;;;;;;;;;5045551;28;20036;-82
2022/07/21 05:10:09;;;;;;;4.53;2.90;;;;;;;;;;5042063;28;20045;-83
2022/07/21 05:12:56;;;;;;;3.20;2.30;;;;;;;;;;5029210;28;20083;-82
2022/07/21 05:15:42;;;;;;;3.13;2.50;;;;;;;;;;5031075;28;20042;-82
2022/07/21 05:18:27;;;;;;;3.75;2.53;;;;;;;;;;5030155;28;20488;-82
2022/07/21 05:21:13;;;;;;;3.70;2.50;;;;;;;;;;5045255;28;20060;-82
2022/07/21 05:23:59;;;;;;;3.25;2.50;;;;;;;;;;5031040;28;20056;-83
2022/07/21 05:26:44;;;;;;;4.53;2.60;;;;;;;;;;5031582;28;20474;-83
2022/07/21 05:29:30;;;;;;;3.40;2.00;;;;;;;;;;5045244;28;20033;-82
2022/07/21 05:32:16;;;;;;;3.50;2.47;;;;;;;;;;5044173;28;20087;-82
2022/07/21 05:35:08;;;;;;;3.08;2.00;;;;;;;;;;5043475;28;20091;-82
2022/07/21 05:37:53;;;;;;;3.25;2.38;;;;;;;;;;5030077;28;20109;-82
2022/07/21 05:40:39;;;;;;;3.83;2.33;;;;;;;;;;5030034;28;20088;-83
2022/07/21 05:43:26;;;;;;;4.47;2.83;;;;;;;;;;5042247;28;20059;-82
2022/07/21 05:46:11;;;;;;;3.13;2.33;;;;;;;;;;5044944;28;20029;-82
2022/07/21 05:48:58;;;;;;;3.65;2.35;;;;;;;;;;5047810;28;20041;-84
2022/07/21 05:51:44;;;;;;;2.92;1.98;;;;;;;;;;5048139;28;20041;-84
2022/07/21 05:54:30;;;;;;;3.25;2.22;;;;;;;;;;5049568;28;20081;-84
2022/07/21 05:57:16;;;;;;;3.85;2.20;;;;;;;;;;5047371;28;20029;-84
2022/07/21 06:00:02;;;;;;;3.88;2.33;;;;;;;;;;5047599;28;20049;-85
2022/07/21 06:02:48;;;;;;;3.28;2.20;;;;;;;;;;5048650;28;20489;-84
2022/07/21 06:05:33;;;;;;;3.42;1.92;;;;;;;;;;5047653;28;20573;-84
2022/07/21 06:08:19;;;;;;;3.88;1.90;;;;;;;;;;5047671;28;20045;-84
2022/07/21 06:11:09;;;;;;;2.92;2.40;;;;;;;;;;5034548;28;20045;-84
2022/07/21 06:13:55;;;;;;;3.67;2.20;;;;;;;;;;5047930;28;20075;-84
2022/07/21 06:16:40;;;;;;;2.58;1.83;;;;;;;;;;5047255;28;20043;-84
2022/07/21 06:19:26;;;;;;;4.97;2.30;;;;;;;;;;5047045;28;20034;-84
2022/07/21 06:22:12;;;;;;;3.85;2.03;;;;;;;;;;5034597;28;20041;-84
2022/07/21 06:24:57;;;;;;;5.95;2.90;;;;;;;;;;5033737;28;20061;-84
2022/07/21 06:27:43;;;;;;;6.07;2.88;;;;;;;;;;5047213;28;20049;-84
2022/07/21 06:30:29;;;;;;;4.10;2.05;;;;;;;;;;5047075;28;20056;-84
2022/07/21 06:33:15;;;;;;;3.85;2.88;;;;;;;;;;5034379;28;20514;-84
2022/07/21 06:36:01;;;;;;;3.80;2.03;;;;;;;;;;5048060;28;20037;-83
2022/07/21 06:38:46;;;;;;;3.63;2.40;;;;;;;;;;5045705;28;20049;-83
2022/07/21 06:41:33;;;;;;;3.40;2.72;;;;;;;;;;5047984;28;20048;-83
2022/07/21 06:44:19;;;;;;;3.33;2.10;;;;;;;;;;5047456;28;20033;-83
2022/07/21 06:47:04;;;;;;;2.75;2.38;;;;;;;;;;5047973;28;20131;-83
2022/07/21 06:49:50;;;;;;;3.17;2.28;;;;;;;;;;5032804;28;20041;-82
2022/07/21 06:52:36;;;;;;;4.85;2.20;;;;;;;;;;5031680;28;20495;-82
2022/07/21 06:55:22;;;;;;;3.50;2.15;;;;;;;;;;5046382;28;20064;-83
2022/07/21 06:58:16;;;;;;;4.43;2.58;;;;;;;;;;5033547;28;20048;-83
2022/07/21 07:01:01;;;;;;;3.53;2.25;;;;;;;;;;5032593;28;20072;-83
2022/07/21 07:03:47;;;;;;;3.42;2.40;;;;;;;;;;5047632;28;20447;-82
2022/07/21 07:06:33;;;;;;;4.18;2.53;;;;;;;;;;5045880;28;20056;-83
2022/07/21 07:09:19;;;;;;;3.35;2.40;;;;;;;;;;5046844;28;20041;-83
2022/07/21 07:12:08;;;;;;;3.35;2.05;;;;;;;;;;5046309;28;20562;-82
2022/07/21 07:14:54;;;;;;;2.70;1.98;;;;;;;;;;5019752;28;20042;-83
2022/07/21 07:17:39;;;;;;;3.72;2.58;;;;;;;;;;5046048;28;20462;-83
2022/07/21 07:20:25;;;;;;;4.03;2.55;;;;;;;;;;5044743;28;20037;-83
2022/07/21 07:23:11;;;;;;;3.47;2.17;;;;;;;;;;5046929;28;20038;-83
2022/07/21 07:25:57;;;;;;;4.28;2.53;;;;;;;;;;5031745;28;20475;-83
2022/07/21 07:28:42;;;;;;;3.88;2.45;;;;;;;;;;5033329;28;20037;-83
2022/07/21 07:31:28;;;;;;;3.15;2.08;;;;;;;;;;5045937;28;20050;-83
2022/07/21 07:34:14;;;;;;;3.85;2.22;;;;;;;;;;5046644;28;20052;-83
2022/07/21 07:37:00;;;;;;;4.85;2.50;;;;;;;;;;5031166;28;20042;-82
2022/07/21 07:39:45;;;;;;;4.63;2.63;;;;;;;;;;5046800;28;20041;-83
2022/07/21 07:42:31;;;;;;;3.53;2.58;;;;;;;;;;5045127;28;20044;-82
2022/07/21 07:45:17;;;;;;;3.70;2.25;;;;;;;;;;5046826;28;20458;-82
2022/07/21 07:48:03;;;;;;;3.78;2.65;;;;;;;;;;5032910;28;20137;-83
2022/07/21 07:50:49;;;;;;;3.42;2.50;;;;;;;;;;5031886;28;20491;-83
2022/07/21 07:53:34;;;;;;;3.17;2.40;;;;;;;;;;5045673;28;20072;-83
2022/07/21 07:56:20;;;;;;;3.92;2.65;;;;;;;;;;5046740;28;20482;-82
2022/07/21 07:59:07;;;;;;;2.92;2.15;;;;;;;;;;5044117;28;20030;-83
2022/07/21 08:01:52;;;;;;;3.97;2.60;;;;;;;;;;5045354;28;20048;-82
2022/07/21 08:04:40;;;;;;;3.72;2.40;;;;;;;;;;5044580;28;20046;-82
2022/07/21 08:07:26;;;;;;;4.63;2.95;;;;;;;;;;5046084;28;20514;-82
2022/07/21 08:10:12;;;;;;;3.40;2.60;;;;;;;;;;5030743;28;20053;-82
2022/07/21 08:12:58;;;;;;;4.68;2.55;;;;;;;;;;5046144;28;20124;-83
2022/07/21 08:15:44;;;;;;;3.05;2.17;;;;;;;;;;5046391;28;20037;-83
2022/07/21 08:18:30;;;;;;;5.47;3.05;;;;;;;;;;5032633;28;20076;-83
2022/07/21 08:21:15;;;;;;;4.90;3.15;;;;;;;;;;5044689;28;20034;-83
2022/07/21 08:24:01;;;;;;;4.63;2.85;;;;;;;;;;5045229;28;20120;-83
2022/07/21 08:26:47;;;;;;;5.45;3.05;;;;;;;;;;5031142;28;20506;-83
2022/07/21 08:29:33;;;;;;;5.88;3.58;;;;;;;;;;5030927;28;20052;-83
2022/07/21 08:32:19;;;;;;;5.22;3.20;;;;;;;;;;5044889;28;20050;-83
2022/07/21 08:35:08;;;;;;;4.55;2.90;;;;;;;;;;5031848;28;20065;-83
2022/07/21 08:38:02;;;;;;;4.53;3.33;;;;;;;;;;5030988;28;20084;-83
2022/07/21 08:40:48;;;;;;;4.68;3.30;;;;;;;;;;5030749;28;20040;-82
2022/07/21 08:43:34;;;;;;;5.65;3.28;;;;;;;;;;5043719;28;20518;-83
2022/07/21 08:46:23;;;;;;;5.53;3.88;;;;;;;;;;5044722;28;20042;-83
2022/07/21 08:49:09;;;;;;;4.97;3.25;;;;;;;;;;5045800;28;20037;-83
2022/07/21 08:51:55;;;;;;;5.43;2.88;;;;;;;;;;5030897;28;20033;-82
2022/07/21 08:54:41;;;;;;;5.05;3.40;;;;;;;;;;5043929;28;20049;-82
2022/07/21 08:57:26;;;;;;;4.32;2.83;;;;;;;;;;5044021;28;20041;-83
2022/07/21 09:00:12;;;;;;;4.13;3.35;;;;;;;;;;5043543;28;20079;-82
2022/07/21 09:03:29;;;;;;;4.90;3.45;;;;;;;;;;5043148;28;20125;-83
2022/07/21 09:06:15;;;;;;;4.35;3.10;;;;;;;;;;5025222;28;20460;-83
2022/07/21 09:09:02;;;;;;;4.82;3.30;;;;;;;;;;5029287;28;20463;-83
2022/07/21 09:11:48;;;;;;;5.03;3.35;;;;;;;;;;5045344;28;20508;-83
2022/07/21 09:14:34;;;;;;;4.25;3.05;;;;;;;;;;5044100;28;20124;-85
2022/07/21 09:17:19;;;;;;;6.20;3.28;;;;;;;;;;5043119;28;20038;-85
2022/07/21 09:20:10;;;;;;;7.65;4.05;;;;;;;;;;5031931;28;20091;-84
2022/07/21 09:23:09;;;;;;;7.82;3.38;;;;;;;;;;5035498;28;20412;-86
2022/07/21 09:25:56;;;;;;;4.63;3.30;;;;;;;;;;5046178;28;20037;-88
2022/07/21 09:28:42;;;;;;;5.85;3.53;;;;;;;;;;5034453;28;20041;-86
2022/07/21 09:31:27;;;;;;;5.85;4.13;;;;;;;;;;5019567;28;20176;-86
2022/07/21 09:34:14;;;;;;;12.25;8.88;;;;;;;;;;5021919;28;20042;-86
2022/07/21 09:37:00;;;;;;;53.95;36.67;;;;;;;;;;5021620;28;20076;-88
2022/07/21 09:39:52;;;;;;;81.75;52.88;;;;;;;;;;5020004;28;20076;-89
2022/07/21 09:42:43;;;;;;;52.33;34.92;;;;;;;;;;5021319;28;20044;-87
2022/07/21 09:45:29;;;;;;;41.85;26.17;;;;;;;;;;5020295;28;20041;-87
2022/07/21 09:48:31;;;;;;;32.95;20.98;;;;;;;;;;5019030;28;20038;-86
2022/07/21 09:51:20;;;;;;;28.45;19.15;;;;;;;;;;5047481;28;20041;-86
2022/07/21 09:54:10;;;;;;;19.85;13.80;;;;;;;;;;5047605;28;20045;-86
2022/07/21 09:56:56;;;;;;;20.70;13.82;;;;;;;;;;5020896;28;20522;-86
2022/07/21 09:59:45;;;;;;;16.13;12.52;;;;;;;;;;5018876;28;20404;-87
2022/07/21 10:02:31;;;;;;;15.35;10.30;;;;;;;;;;5031493;28;20063;-87
2022/07/21 10:05:19;;;;;;;11.77;8.57;;;;;;;;;;5005007;28;20056;-87
2022/07/21 10:08:04;;;;;;;14.80;8.43;;;;;;;;;;5020544;28;20049;-86
2022/07/21 10:10:50;;;;;;;12.18;9.15;;;;;;;;;;5049435;28;20491;-86
2022/07/21 10:13:37;;;;;;;12.32;7.72;;;;;;;;;;5042160;28;20397;-86
2022/07/21 10:16:23;;;;;;;11.82;8.23;;;;;;;;;;5041862;28;20060;-87
2022/07/21 10:19:12;;;;;;;26.50;17.90;;;;;;;;;;5036564;28;20045;-87
2022/07/21 10:22:07;;;;;;;23.52;15.65;;;;;;;;;;5021258;28;20040;-88
2022/07/21 10:24:53;;;;;;;20.30;15.48;;;;;;;;;;5006857;28;20589;-86
2022/07/21 10:28:08;;;;;;;24.73;17.48;;;;;;;;;;5034255;28;20055;-87
2022/07/21 10:30:55;;;;;;;25.95;18.88;;;;;;;;;;5043449;28;20037;-86
2022/07/21 10:33:47;;;;;;;28.55;20.15;;;;;;;;;;5045867;28;20057;-87
2022/07/21 10:36:33;;;;;;;31.38;21.73;;;;;;;;;;5049016;28;20037;-87
2022/07/21 10:39:20;;;;;;;34.30;23.30;;;;;;;;;;5033535;28;20495;-87
2022/07/21 10:42:15;;;;;;;34.00;23.77;;;;;;;;;;5045977;28;20040;-86
2022/07/21 10:45:02;;;;;;;34.65;24.35;;;;;;;;;;5034145;28;20041;-86
2022/07/21 10:47:48;;;;;;;33.97;23.83;;;;;;;;;;5031719;28;20040;-85
2022/07/21 10:50:38;;;;;;;31.08;23.45;;;;;;;;;;5047737;28;20037;-85
2022/07/21 10:53:24;;;;;;;32.53;23.15;;;;;;;;;;5045932;28;20030;-85
2022/07/21 10:56:26;;;;;;;30.52;22.55;;;;;;;;;;5033701;28;20573;-86
2022/07/21 10:59:11;;;;;;;32.40;24.30;;;;;;;;;;5032846;28;20125;-85
2022/07/21 11:02:26;;;;;;;34.80;21.80;;;;;;;;;;5046594;28;20045;-85
2022/07/21 11:05:12;;;;;;;27.95;20.73;;;;;;;;;;5047121;28;20549;-85
2022/07/21 11:08:14;;;;;;;26.67;19.80;;;;;;;;;;5045629;28;20044;-85
2022/07/21 11:11:11;;;;;;;26.23;19.38;;;;;;;;;;5046415;28;20041;-85
2022/07/21 11:14:12;;;;;;;25.05;19.15;;;;;;;;;;5045254;28;20516;-85
2022/07/21 11:17:01;;;;;;;24.88;18.83;;;;;;;;;;5045699;28;20037;-85
2022/07/21 11:19:52;;;;;;;24.25;17.92;;;;;;;;;;5032386;28;20565;-85
2022/07/21 11:22:38;;;;;;;24.02;16.58;;;;;;;;;;5032516;28;20080;-85
2022/07/21 11:25:23;;;;;;;22.73;17.17;;;;;;;;;;5032904;28;20643;-85
2022/07/21 11:28:16;;;;;;;25.17;16.80;;;;;;;;;;5046216;28;20500;-85
2022/07/21 11:31:14;;;;;;;22.58;15.27;;;;;;;;;;5044801;28;20059;-84
2022/07/21 11:33:59;;;;;;;19.80;14.60;;;;;;;;;;5044997;28;20046;-84
2022/07/21 11:36:45;;;;;;;18.50;14.25;;;;;;;;;;5044761;28;20034;-84
2022/07/21 11:39:31;;;;;;;18.70;14.00;;;;;;;;;;5030746;28;20036;-85
2022/07/21 11:42:17;;;;;;;16.77;13.02;;;;;;;;;;5044774;28;20121;-84
2022/07/21 11:45:03;;;;;;;15.50;12.52;;;;;;;;;;5045038;28;20041;-84
2022/07/21 11:47:51;;;;;;;19.33;13.68;;;;;;;;;;5030792;28;20401;-84
2022/07/21 11:50:37;;;;;;;16.67;12.63;;;;;;;;;;5044756;28;20044;-84
2022/07/21 11:53:23;;;;;;;17.13;12.63;;;;;;;;;;5045806;28;20042;-85
2022/07/21 11:56:15;;;;;;;15.55;11.02;;;;;;;;;;5046373;28;20060;-85
2022/07/21 11:59:11;;;;;;;17.20;11.88;;;;;;;;;;5031455;28;20041;-84
2022/07/21 12:02:01;;;;;;;15.30;10.68;;;;;;;;;;5016685;28;20037;-84
2022/07/21 12:04:55;;;;;;;15.55;11.27;;;;;;;;;;5043914;28;20042;-84
2022/07/21 12:07:45;;;;;;;12.75;10.25;;;;;;;;;;5030768;28;20044;-85
2022/07/21 12:10:31;;;;;;;12.23;9.98;;;;;;;;;;5030622;28;20431;-85
2022/07/21 12:13:17;;;;;;;12.13;10.38;;;;;;;;;;5031001;28;20040;-84
2022/07/21 12:16:03;;;;;;;13.65;9.95;;;;;;;;;;5032072;28;20037;-85
2022/07/21 12:19:05;;;;;;;12.77;9.52;;;;;;;;;;5045738;28;20034;-84
2022/07/21 12:21:52;;;;;;;10.48;8.25;;;;;;;;;;5030317;28;20112;-84
2022/07/21 12:25:07;;;;;;;10.23;8.90;;;;;;;;;;5017985;28;20503;-84
2022/07/21 12:27:53;;;;;;;9.85;7.25;;;;;;;;;;5027669;28;20041;-85
2022/07/21 12:30:44;;;;;;;10.63;8.30;;;;;;;;;;5032100;28;20515;-86
2022/07/21 12:33:29;;;;;;;12.40;7.50;;;;;;;;;;5044955;28;20515;-86
2022/07/21 12:36:15;;;;;;;10.65;7.25;;;;;;;;;;5031384;28;20037;-86
2022/07/21 12:39:55;;;;;;;9.93;7.00;;;;;;;;;;5032125;28;20084;-85
2022/07/21 12:42:32;;;;;;;8.55;6.70;;;;;;;;;;5032131;28;20522;-84
2022/07/21 12:45:19;;;;;;;9.23;6.78;;;;;;;;;;5017793;28;20053;-84
2022/07/21 12:48:11;;;;;;;9.20;6.35;;;;;;;;;;5030842;28;20049;-84
2022/07/21 12:51:09;;;;;;;8.25;5.78;;;;;;;;;;5044114;28;20515;-83
2022/07/21 12:53:55;;;;;;;6.95;5.80;;;;;;;;;;5043475;28;20568;-83
2022/07/21 12:56:40;;;;;;;8.95;5.90;;;;;;;;;;5045229;28;20040;-83
2022/07/21 12:59:26;;;;;;;7.40;5.60;;;;;;;;;;5031631;28;20038;-83
2022/07/21 13:02:12;;;;;;;6.40;5.30;;;;;;;;;;5044062;28;20049;-83
2022/07/21 13:04:58;;;;;;;5.60;4.05;;;;;;;;;;5031424;28;20128;-83
2022/07/21 13:07:43;;;;;;;5.95;4.25;;;;;;;;;;5045517;28;20033;-83
2022/07/21 13:10:29;;;;;;;5.38;3.78;;;;;;;;;;5030895;28;20099;-83
2022/07/21 13:13:16;;;;;;;5.93;4.53;;;;;;;;;;5044686;28;20065;-84
2022/07/21 13:16:02;;;;;;;6.28;4.35;;;;;;;;;;5031539;28;20029;-83
2022/07/21 13:18:47;;;;;;;5.53;3.90;;;;;;;;;;5031056;28;20037;-83
2022/07/21 13:21:33;;;;;;;5.60;3.67;;;;;;;;;;5031614;28;20503;-83
2022/07/21 13:24:19;;;;;;;4.80;3.70;;;;;;;;;;5031017;28;20453;-83
2022/07/21 13:27:05;;;;;;;4.25;3.20;;;;;;;;;;5031705;28;20544;-83
2022/07/21 13:29:50;;;;;;;6.43;3.97;;;;;;;;;;5030812;28;20038;-83
2022/07/21 13:32:36;;;;;;;5.63;3.70;;;;;;;;;;5030900;28;20041;-83
2022/07/21 13:35:22;;;;;;;4.45;3.05;;;;;;;;;;5030850;28;20045;-83
2022/07/21 13:38:08;;;;;;;4.63;3.50;;;;;;;;;;5044221;28;20045;-83
2022/07/21 13:40:53;;;;;;;4.35;2.97;;;;;;;;;;5042463;28;20054;-83
2022/07/21 13:43:39;;;;;;;5.43;3.20;;;;;;;;;;5030362;28;20036;-83
2022/07/21 13:46:25;;;;;;;3.60;2.10;;;;;;;;;;5044048;28;20547;-83
2022/07/21 13:49:10;;;;;;;4.60;2.47;;;;;;;;;;5030581;28;20057;-83
2022/07/21 13:51:56;;;;;;;2.72;2.13;;;;;;;;;;5030815;28;20034;-83
2022/07/21 13:54:42;;;;;;;5.70;3.00;;;;;;;;;;5044596;28;20034;-84
2022/07/21 13:57:28;;;;;;;3.60;2.45;;;;;;;;;;5030826;28;20041;-83
2022/07/21 14:00:14;;;;;;;3.78;2.45;;;;;;;;;;5030904;28;20068;-83
2022/07/21 14:02:59;;;;;;;3.00;2.00;;;;;;;;;;5044761;28;20042;-83
2022/07/21 14:05:45;;;;;;;3.22;2.13;;;;;;;;;;5030742;28;20038;-83
2022/07/21 14:08:31;;;;;;;3.70;2.03;;;;;;;;;;5032971;28;20057;-84
2022/07/21 14:11:17;;;;;;;3.80;2.38;;;;;;;;;;5034814;28;20041;-84
2022/07/21 14:14:02;;;;;;;3.13;2.20;;;;;;;;;;5034074;28;20412;-84
2022/07/21 14:16:49;;;;;;;2.78;1.80;;;;;;;;;;5034724;28;20048;-84
2022/07/21 14:19:37;;;;;;;3.15;2.17;;;;;;;;;;5047727;28;20042;-84
2022/07/21 14:22:23;;;;;;;4.75;2.78;;;;;;;;;;5034906;28;20030;-83
2022/07/21 14:25:18;;;;;;;4.05;2.47;;;;;;;;;;5034666;28;20047;-84
2022/07/21 14:28:03;;;;;;;3.20;1.83;;;;;;;;;;5034650;28;20048;-83
2022/07/21 14:30:49;;;;;;;4.40;2.60;;;;;;;;;;5034345;28;20140;-83
2022/07/21 14:33:35;;;;;;;3.05;1.70;;;;;;;;;;5047705;28;20538;-83
2022/07/21 14:36:21;;;;;;;3.67;1.98;;;;;;;;;;5034419;28;20049;-84
2022/07/21 14:39:06;;;;;;;3.97;2.15;;;;;;;;;;5033457;28;20041;-84
2022/07/21 14:41:52;;;;;;;4.60;2.20;;;;;;;;;;5046559;28;20041;-84
2022/07/21 14:44:39;;;;;;;3.28;1.80;;;;;;;;;;5033340;28;20034;-84
2022/07/21 14:47:25;;;;;;;3.30;2.10;;;;;;;;;;5047464;28;20052;-83
2022/07/21 14:50:10;;;;;;;2.95;1.50;;;;;;;;;;5034165;28;20412;-83
2022/07/21 14:52:57;;;;;;;3.42;1.90;;;;;;;;;;5045898;28;20040;-83
2022/07/21 14:55:42;;;;;;;3.85;2.53;;;;;;;;;;5032480;28;20032;-83
2022/07/21 14:58:28;;;;;;;3.92;1.80;;;;;;;;;;5033340;28;20037;-83
2022/07/21 15:01:14;;;;;;;2.33;1.58;;;;;;;;;;5033077;28;20083;-83
2022/07/21 15:04:00;;;;;;;2.67;1.40;;;;;;;;;;5047513;28;20049;-83
2022/07/21 15:06:46;;;;;;;4.22;1.60;;;;;;;;;;5033021;28;20146;-83
2022/07/21 15:09:31;;;;;;;3.75;2.20;;;;;;;;;;5031359;28;20496;-83
2022/07/21 15:12:17;;;;;;;2.50;1.40;;;;;;;;;;5033656;28;20056;-83
2022/07/21 15:15:03;;;;;;;3.17;1.90;;;;;;;;;;5047427;28;20067;-83
2022/07/21 15:17:49;;;;;;;2.15;1.48;;;;;;;;;;5031489;28;20044;-83
2022/07/21 15:20:35;;;;;;;3.72;2.13;;;;;;;;;;5033559;28;20065;-83
2022/07/21 15:23:20;;;;;;;2.35;1.85;;;;;;;;;;5032477;28;20040;-83
2022/07/21 15:26:06;;;;;;;3.53;1.92;;;;;;;;;;5046234;28;20045;-84
2022/07/21 15:28:52;;;;;;;2.95;1.73;;;;;;;;;;5033400;28;20506;-84
2022/07/21 15:31:38;;;;;;;2.33;1.48;;;;;;;;;;5033119;28;20048;-83
2022/07/21 15:34:24;;;;;;;2.60;1.50;;;;;;;;;;5031957;28;20423;-83
2022/07/21 15:37:10;;;;;;;2.75;1.48;;;;;;;;;;5033099;28;20107;-83
2022/07/21 15:39:56;;;;;;;4.38;1.75;;;;;;;;;;5033017;28;20120;-83
2022/07/21 15:42:42;;;;;;;3.13;1.75;;;;;;;;;;5031206;28;20041;-83
2022/07/21 15:45:28;;;;;;;3.20;1.77;;;;;;;;;;5046560;28;20041;-83
2022/07/21 15:48:13;;;;;;;2.33;1.55;;;;;;;;;;5031637;28;20503;-83
2022/07/21 15:50:59;;;;;;;3.80;1.60;;;;;;;;;;5032280;28;20034;-83
2022/07/21 15:53:45;;;;;;;4.32;1.95;;;;;;;;;;5032573;28;20052;-84
2022/07/21 15:56:31;;;;;;;2.65;1.50;;;;;;;;;;5032577;28;20049;-84
2022/07/21 15:59:35;;;;;;;2.55;1.40;;;;;;;;;;5032641;28;20065;-83
2022/07/21 16:02:21;;;;;;;3.20;1.65;;;;;;;;;;5043077;28;20041;-84
2022/07/21 16:05:14;;;;;;;3.95;1.58;;;;;;;;;;5031318;28;20507;-83
2022/07/21 16:07:59;;;;;;;4.45;1.60;;;;;;;;;;5018638;28;20037;-83
2022/07/21 16:10:45;;;;;;;4.72;1.95;;;;;;;;;;5031633;28;20058;-84
2022/07/21 16:13:31;;;;;;;3.08;1.75;;;;;;;;;;5045136;28;20037;-84
2022/07/21 16:16:16;;;;;;;3.83;2.00;;;;;;;;;;5031986;28;20136;-84
2022/07/21 16:19:02;;;;;;;3.00;1.52;;;;;;;;;;5030808;28;20048;-84
2022/07/21 16:21:48;;;;;;;3.28;2.00;;;;;;;;;;5032330;28;20416;-84
2022/07/21 16:24:34;;;;;;;5.13;1.90;;;;;;;;;;5045668;28;20598;-84
2022/07/21 16:27:20;;;;;;;3.63;1.83;;;;;;;;;;5044727;28;20048;-83
2022/07/21 16:30:06;;;;;;;4.18;1.90;;;;;;;;;;5045302;28;20641;-83
2022/07/21 16:32:53;;;;;;;3.00;1.83;;;;;;;;;;5043950;28;20049;-83
2022/07/21 16:35:39;;;;;;;3.17;1.67;;;;;;;;;;5031695;28;20036;-83
2022/07/21 16:38:24;;;;;;;3.03;1.77;;;;;;;;;;5031545;28;20560;-83
2022/07/21 16:41:10;;;;;;;3.75;1.90;;;;;;;;;;5045008;28;20037;-83